Time;durP1;ratioP1;P1;durP2;ratioP2;P2;SDS_P1;SDS_P2;PMS_P1;PMS_P2;Temp;Humidity;BMP_temperature;BMP_pressure;BME280_temperature;BME280_humidity;BME280_pressure;Samples;Min_cycle;Max_cycle;Signal;HPM_P1;HPM_P2
2021/07/27 00:01:10;;;;;;;1.67;1.58;;;26.30;49.30;;;-147.20;100.00;58430.41;5113682;28;20046;-52
2021/07/27 00:03:37;;;;;;;2.00;1.80;;;26.30;49.30;;;-147.20;100.00;58430.41;5112130;28;20048;-50
2021/07/27 00:06:04;;;;;;;2.20;2.00;;;26.30;49.30;;;-147.20;100.00;58430.41;5113664;28;20087;-48
2021/07/27 00:08:31;;;;;;;2.30;2.10;;;26.30;49.40;;;-147.20;100.00;58430.41;5113567;28;20104;-48
2021/07/27 00:10:59;;;;;;;1.90;1.80;;;26.30;49.40;;;-147.20;100.00;58430.41;5113673;28;20048;-55
2021/07/27 00:13:24;;;;;;;1.98;1.85;;;26.30;49.40;;;-147.20;100.00;58430.41;5113693;28;20092;-53
2021/07/27 00:15:50;;;;;;;2.13;2.00;;;26.30;49.40;;;-147.20;100.00;58430.41;5113327;28;20067;-53
2021/07/27 00:18:16;;;;;;;1.77;1.67;;;26.30;49.40;;;-147.20;100.00;58430.41;5113370;28;20052;-49
2021/07/27 00:20:42;;;;;;;1.77;1.67;;;26.30;49.50;;;-147.20;100.00;58430.41;5112615;28;20143;-53
2021/07/27 00:23:08;;;;;;;2.00;1.90;;;26.30;49.50;;;-147.20;100.00;58430.41;5113316;28;20059;-49
2021/07/27 00:25:34;;;;;;;1.80;1.70;;;26.30;49.50;;;-147.20;100.00;58430.41;5113369;28;20055;-50
2021/07/27 00:27:59;;;;;;;1.90;1.80;;;26.30;49.50;;;-147.20;100.00;58430.41;5094916;28;20050;-51
2021/07/27 00:30:25;;;;;;;2.20;2.00;;;26.20;49.40;;;-147.20;100.00;58430.41;5113193;28;20050;-53
2021/07/27 00:32:51;;;;;;;2.03;1.83;;;26.20;49.50;;;-147.20;100.00;58430.41;5113211;28;20123;-50
2021/07/27 00:35:17;;;;;;;2.20;2.00;;;26.20;49.50;;;-147.20;100.00;58430.41;5113421;28;20044;-52
2021/07/27 00:37:47;;;;;;;1.90;1.80;;;26.20;49.50;;;-147.20;100.00;58430.41;5113206;28;20043;-52
2021/07/27 00:40:14;;;;;;;1.88;1.77;;;26.20;50.10;;;-147.20;100.00;58430.41;5095732;28;20056;-53
2021/07/27 00:42:45;;;;;;;2.17;1.98;;;26.20;49.60;;;-147.20;100.00;58430.41;5113140;28;20581;-53
2021/07/27 00:45:11;;;;;;;1.70;1.60;;;26.20;49.50;;;-147.20;100.00;58430.41;5113167;28;20079;-52
2021/07/27 00:47:37;;;;;;;1.60;1.50;;;26.20;49.60;;;-147.20;100.00;58430.41;5113398;28;20463;-52
2021/07/27 00:50:03;;;;;;;2.03;1.90;;;26.20;49.60;;;-147.20;100.00;58430.41;5113237;28;20100;-51
2021/07/27 00:52:29;;;;;;;2.05;1.85;;;26.20;49.60;;;-147.20;100.00;58430.41;5076058;28;20173;-54
2021/07/27 00:54:55;;;;;;;1.85;1.75;;;26.20;49.60;;;-147.20;100.00;58430.41;5112938;28;20079;-48
2021/07/27 00:57:23;;;;;;;1.70;1.60;;;26.20;49.60;;;-147.20;100.00;58430.41;5113137;28;20048;-51
2021/07/27 00:59:49;;;;;;;1.90;1.73;;;26.20;49.60;;;-147.20;100.00;58430.41;5115937;28;20548;-51
2021/07/27 01:02:15;;;;;;;1.92;1.73;;;26.20;49.70;;;-147.20;100.00;58430.41;5098541;28;20043;-52
2021/07/27 01:04:41;;;;;;;1.80;1.70;;;26.10;49.60;;;-147.20;100.00;58430.41;5116468;28;20070;-50
2021/07/27 01:07:07;;;;;;;1.95;1.80;;;26.10;49.60;;;-147.20;100.00;58430.41;5116474;28;20062;-52
2021/07/27 01:09:33;;;;;;;2.05;1.85;;;26.10;49.70;;;-147.20;100.00;58430.41;5117048;28;20051;-49
2021/07/27 01:12:01;;;;;;;1.90;1.70;;;26.10;49.70;;;-147.20;100.00;58430.41;5097979;28;20051;-52
2021/07/27 01:14:27;;;;;;;2.13;1.73;;;26.10;49.70;;;-147.20;100.00;58430.41;5116321;28;20051;-53
2021/07/27 01:16:53;;;;;;;1.98;1.77;;;26.10;49.70;;;-147.20;100.00;58430.41;5116170;28;20051;-54
2021/07/27 01:38:59;;;;;;;2.00;1.83;;;26.00;50.40;;;-147.20;100.00;58430.41;5116285;28;20054;-51
2021/07/27 01:43:52;;;;;;;2.30;2.10;;;26.00;49.80;;;-147.20;100.00;58430.41;5115959;28;20043;-53
2021/07/27 01:46:25;;;;;;;1.83;1.70;;;26.00;49.80;;;-147.20;100.00;58430.41;5115744;28;20463;-53
2021/07/27 01:48:51;;;;;;;2.03;1.55;;;26.00;49.90;;;-147.20;100.00;58430.41;5116184;28;20047;-52
2021/07/27 01:51:17;;;;;;;1.58;1.48;;;26.00;49.80;;;-147.20;100.00;58430.41;5116083;28;20079;-52
2021/07/27 01:53:49;;;;;;;1.88;1.70;;;26.00;49.80;;;-147.20;100.00;58430.41;5115468;28;20044;-54
2021/07/27 01:56:15;;;;;;;2.42;1.77;;;26.00;49.90;;;-147.20;100.00;58430.41;5115835;28;20490;-52
2021/07/27 01:58:42;;;;;;;1.80;1.70;;;26.00;49.90;;;-147.20;100.00;58430.41;5115506;28;20051;-49
2021/07/27 02:01:08;;;;;;;1.92;1.73;;;26.00;49.90;;;-147.20;100.00;58430.41;5097379;28;20085;-51
2021/07/27 02:03:34;;;;;;;1.70;1.60;;;26.00;50.00;;;-147.20;100.00;58430.41;5096525;28;20040;-52
2021/07/27 02:05:59;;;;;;;1.80;1.70;;;26.00;50.50;;;-147.20;100.00;58430.41;5115566;28;20087;-52
2021/07/27 02:08:25;;;;;;;2.17;1.98;;;26.00;50.00;;;-147.20;100.00;58430.41;5115495;28;20058;-56
2021/07/27 02:10:55;;;;;;;1.90;1.80;;;26.00;50.10;;;-147.20;100.00;58430.41;5115384;28;20051;-55
2021/07/27 02:13:28;;;;;;;1.63;1.53;;;26.00;50.10;;;-147.20;100.00;58430.41;5115602;28;20050;-52
2021/07/27 02:15:54;;;;;;;1.55;1.45;;;26.00;50.00;;;-147.20;100.00;58430.41;5115921;28;20051;-52
2021/07/27 02:18:23;;;;;;;1.65;1.55;;;26.00;50.00;;;-147.20;100.00;58430.41;5097104;28;20052;-51
2021/07/27 02:20:49;;;;;;;1.65;1.55;;;25.90;50.00;;;-147.20;100.00;58430.41;5115092;28;20104;-49
2021/07/27 02:23:15;;;;;;;1.67;1.58;;;25.90;50.10;;;-147.20;100.00;58430.41;5115646;28;20085;-48
2021/07/27 02:25:41;;;;;;;1.83;1.73;;;25.90;50.10;;;-147.20;100.00;58430.41;5115172;28;20096;-49
2021/07/27 02:28:12;;;;;;;1.88;1.70;;;25.90;50.10;;;-147.20;100.00;58430.41;5115015;28;20421;-48
2021/07/27 02:30:54;;;;;;;1.85;1.75;;;25.90;50.10;;;-147.20;100.00;58430.41;5115041;28;20067;-49
2021/07/27 02:33:20;;;;;;;1.95;1.85;;;25.90;50.10;;;-147.20;100.00;58430.41;5097199;28;20051;-50
2021/07/27 02:35:46;;;;;;;1.73;1.63;;;25.90;50.10;;;-147.20;100.00;58430.41;5113647;28;20087;-49
2021/07/27 02:38:12;;;;;;;1.88;1.77;;;25.90;50.10;;;-147.20;100.00;58430.41;5114881;28;20047;-48
2021/07/27 02:40:38;;;;;;;1.90;1.80;;;25.90;50.20;;;-147.20;100.00;58430.41;5096720;28;20055;-52
2021/07/27 02:43:04;;;;;;;2.08;1.88;;;25.90;50.20;;;-147.20;100.00;58430.41;5115555;28;20053;-49
2021/07/27 02:45:33;;;;;;;1.90;1.80;;;25.90;50.20;;;-147.20;100.00;58430.41;5115172;28;20056;-50
2021/07/27 02:47:59;;;;;;;2.03;1.88;;;25.90;50.20;;;-147.20;100.00;58430.41;5114872;28;20058;-52
2021/07/27 02:50:28;;;;;;;1.73;1.63;;;25.90;50.20;;;-147.20;100.00;58430.41;5115220;28;20047;-50
2021/07/27 02:52:55;;;;;;;1.80;1.70;;;25.90;50.20;;;-147.20;100.00;58430.41;5114715;28;20053;-50
2021/07/27 02:55:21;;;;;;;2.03;1.83;;;25.90;50.20;;;-147.20;100.00;58430.41;5114754;28;20047;-51
2021/07/27 02:57:50;;;;;;;1.67;1.58;;;25.90;50.20;;;-147.20;100.00;58430.41;5114905;28;20039;-49
2021/07/27 03:00:17;;;;;;;2.30;2.10;;;25.80;50.20;;;-147.20;100.00;58430.41;5114412;28;20130;-52
2021/07/27 03:02:44;;;;;;;1.80;1.70;;;25.80;50.70;;;-147.20;100.00;58430.41;5114989;28;20047;-50
2021/07/27 03:05:13;;;;;;;2.10;1.90;;;25.90;50.30;;;-147.20;100.00;58430.41;5114822;28;20070;-50
2021/07/27 03:10:17;;;;;;;1.50;1.40;;;25.80;50.30;;;-147.20;100.00;58430.41;5114339;28;20092;-51
2021/07/27 03:12:53;;;;;;;2.15;1.95;;;25.80;50.20;;;-147.20;100.00;58430.41;5114720;28;20054;-51
2021/07/27 03:15:20;;;;;;;1.92;1.83;;;25.90;50.40;;;-147.20;100.00;58430.41;5114432;28;20062;-53
2021/07/27 03:17:47;;;;;;;1.88;1.77;;;25.80;50.30;;;-147.20;100.00;58430.41;5114376;28;20131;-50
2021/07/27 03:20:16;;;;;;;1.67;1.58;;;25.80;50.30;;;-147.20;100.00;58430.41;5114094;28;20051;-52
2021/07/27 03:22:42;;;;;;;1.70;1.60;;;25.80;50.30;;;-147.20;100.00;58430.41;5113617;28;20056;-48
2021/07/27 03:25:10;;;;;;;1.70;1.60;;;25.80;50.30;;;-147.20;100.00;58430.41;5114327;28;20067;-50
2021/07/27 03:27:36;;;;;;;1.55;1.45;;;25.80;50.40;;;-147.20;100.00;58430.41;5114293;28;20047;-47
2021/07/27 03:30:04;;;;;;;1.70;1.60;;;25.80;50.40;;;-147.20;100.00;58430.41;5114805;28;20043;-49
2021/07/27 03:32:31;;;;;;;2.05;1.77;;;25.80;50.40;;;-147.20;100.00;58430.41;5114066;28;20135;-49
2021/07/27 03:34:57;;;;;;;2.15;1.95;;;25.80;50.40;;;-147.20;100.00;58430.41;5114388;28;20061;-47
2021/07/27 03:37:23;;;;;;;2.28;2.08;;;25.80;50.40;;;-147.20;100.00;58430.41;5114337;28;20043;-52
2021/07/27 03:39:48;;;;;;;1.92;1.77;;;25.80;50.40;;;-147.20;100.00;58430.41;5095575;28;20040;-51
2021/07/27 03:42:14;;;;;;;1.73;1.63;;;25.80;50.40;;;-147.20;100.00;58430.41;5112609;28;20043;-48
2021/07/27 03:44:40;;;;;;;1.65;1.55;;;25.80;50.40;;;-147.20;100.00;58430.41;5114045;28;20046;-54
2021/07/27 03:47:07;;;;;;;1.60;1.50;;;25.80;50.40;;;-147.20;100.00;58430.41;5114453;28;20105;-50
2021/07/27 03:49:33;;;;;;;1.70;1.60;;;25.80;50.40;;;-147.20;100.00;58430.41;5113818;28;20200;-52
2021/07/27 03:52:03;;;;;;;2.05;1.85;;;25.80;50.40;;;-147.20;100.00;58430.41;5114282;28;20083;-51
2021/07/27 03:54:31;;;;;;;1.88;1.77;;;25.80;50.40;;;-147.20;100.00;58430.41;5113838;28;20068;-46
2021/07/27 03:56:57;;;;;;;1.75;1.60;;;25.80;50.50;;;-147.20;100.00;58430.41;5112660;28;20201;-48
2021/07/27 03:59:23;;;;;;;1.73;1.63;;;25.80;50.40;;;-147.20;100.00;58430.41;5113656;28;20046;-48
2021/07/27 04:01:50;;;;;;;1.90;1.80;;;25.80;50.40;;;-147.20;100.00;58430.41;5112239;28;20040;-47
2021/07/27 04:04:19;;;;;;;2.00;1.90;;;25.80;50.40;;;-147.20;100.00;58430.41;5113682;28;20128;-47
2021/07/27 04:06:49;;;;;;;1.60;1.50;;;25.80;50.90;;;-147.20;100.00;58430.41;5095701;28;20047;-46
2021/07/27 04:09:15;;;;;;;1.80;1.70;;;25.90;50.40;;;-147.20;100.00;58430.41;5114108;28;20036;-47
2021/07/27 04:11:41;;;;;;;2.00;1.80;;;25.90;50.30;;;-147.20;100.00;58430.41;5113542;28;20054;-48
2021/07/27 04:14:10;;;;;;;1.80;1.70;;;25.90;50.20;;;-147.20;100.00;58430.41;5113427;28;20047;-52
2021/07/27 04:16:40;;;;;;;1.88;1.77;;;26.00;50.20;;;-147.20;100.00;58430.41;5113398;28;20052;-47
2021/07/27 04:19:07;;;;;;;2.00;1.83;;;26.00;50.10;;;-147.20;100.00;58430.41;5113353;28;20047;-49
2021/07/27 04:21:34;;;;;;;1.90;1.80;;;26.00;50.00;;;-147.20;100.00;58430.41;5112795;28;20556;-49
2021/07/27 04:24:00;;;;;;;2.15;1.80;;;26.10;50.00;;;-147.20;100.00;58430.41;5095124;28;20055;-47
2021/07/27 04:26:28;;;;;;;1.77;1.67;;;26.10;49.90;;;-147.20;100.00;58430.41;5113209;28;20093;-47
2021/07/27 04:28:54;;;;;;;1.95;1.80;;;26.10;49.90;;;-147.20;100.00;58430.41;5113320;28;20189;-47
2021/07/27 04:31:23;;;;;;;1.92;1.83;;;26.20;49.80;;;-147.20;100.00;58430.41;5113186;28;20089;-48
2021/07/27 04:33:49;;;;;;;1.83;1.73;;;26.20;49.70;;;-147.20;100.00;58430.41;5112037;28;20051;-49
2021/07/27 04:36:15;;;;;;;1.77;1.67;;;26.30;49.70;;;-147.20;100.00;58430.41;5113373;28;20047;-48
2021/07/27 04:38:41;;;;;;;1.85;1.75;;;26.30;49.70;;;-147.20;100.00;58430.41;5112791;28;20055;-49
2021/07/27 04:41:10;;;;;;;1.67;1.58;;;26.30;49.60;;;-147.20;100.00;58430.41;5113141;28;20521;-48
2021/07/27 04:43:37;;;;;;;1.88;1.60;;;26.30;50.10;;;-147.20;100.00;58430.41;5112865;28;20132;-48
2021/07/27 04:46:07;;;;;;;4.30;2.20;;;26.30;49.60;;;-147.20;100.00;58430.41;5112936;28;20196;-47
2021/07/27 04:48:33;;;;;;;1.70;1.60;;;26.30;49.60;;;-147.20;100.00;58430.41;5112946;28;20058;-49
2021/07/27 04:50:59;;;;;;;1.70;1.60;;;26.30;49.60;;;-147.20;100.00;58430.41;5094613;28;20040;-52
2021/07/27 04:53:25;;;;;;;2.08;1.90;;;26.30;49.50;;;-147.20;100.00;58430.41;5113129;28;20360;-51
2021/07/27 04:55:53;;;;;;;1.80;1.70;;;26.40;49.50;;;-147.20;100.00;58430.41;5112845;28;20079;-48
2021/07/27 04:58:18;;;;;;;1.90;1.80;;;26.40;49.40;;;-147.20;100.00;58430.41;5112934;28;20495;-49
2021/07/27 05:00:44;;;;;;;1.92;1.83;;;26.50;49.30;;;-147.20;100.00;58430.41;5113456;28;20130;-48
2021/07/27 05:03:10;;;;;;;2.00;1.90;;;26.50;49.20;;;-147.20;100.00;58430.41;5113205;28;20052;-47
2021/07/27 05:05:36;;;;;;;1.70;1.60;;;26.50;49.10;;;-147.20;100.00;58430.41;5112744;28;20079;-50
2021/07/27 05:08:03;;;;;;;1.60;1.50;;;26.50;49.10;;;-147.20;100.00;58430.41;5077525;28;20134;-52
2021/07/27 05:10:29;;;;;;;1.70;1.60;;;26.60;49.10;;;-147.20;100.00;58430.41;5112511;28;20075;-49
2021/07/27 05:12:55;;;;;;;1.40;1.30;;;26.50;49.10;;;-147.20;100.00;58430.41;5113209;28;20104;-50
2021/07/27 05:15:21;;;;;;;2.05;1.85;;;26.50;49.10;;;-147.20;100.00;58430.41;5112509;28;20047;-48
2021/07/27 05:17:59;;;;;;;1.70;1.60;;;26.60;49.10;;;-147.20;100.00;58430.41;5112619;28;20058;-46
2021/07/27 05:20:24;;;;;;;1.70;1.60;;;26.60;49.10;;;-147.20;100.00;58430.41;5112909;28;20126;-48
2021/07/27 05:22:50;;;;;;;1.70;1.60;;;26.50;49.10;;;-147.20;100.00;58430.41;5112785;28;20048;-50
2021/07/27 05:25:16;;;;;;;1.70;1.60;;;26.60;49.10;;;-147.20;100.00;58430.41;5094240;28;20505;-48
2021/07/27 05:27:42;;;;;;;1.90;1.80;;;26.70;49.10;;;-147.20;100.00;58430.41;5112398;28;20127;-50
2021/07/27 05:30:08;;;;;;;1.90;1.80;;;26.70;49.00;;;-147.20;100.00;58430.41;5112489;28;20054;-47
2021/07/27 05:32:34;;;;;;;2.08;1.80;;;26.80;48.90;;;-147.20;100.00;58430.41;5094133;28;20055;-48
2021/07/27 05:35:00;;;;;;;1.58;1.40;;;26.80;48.80;;;-147.20;100.00;58430.41;5112734;28;20415;-47
2021/07/27 05:37:25;;;;;;;1.70;1.60;;;26.80;48.70;;;-147.20;100.00;58430.41;5112432;28;20054;-49
2021/07/27 05:39:51;;;;;;;1.70;1.60;;;26.80;48.70;;;-147.20;100.00;58430.41;5112305;28;20052;-50
2021/07/27 05:42:17;;;;;;;1.67;1.58;;;26.90;48.70;;;-147.20;100.00;58430.41;5112328;28;20056;-49
2021/07/27 05:44:43;;;;;;;1.60;1.50;;;26.90;48.70;;;-147.20;100.00;58430.41;5114085;28;20040;-48
2021/07/27 05:47:08;;;;;;;1.58;1.48;;;26.90;48.70;;;-147.20;100.00;58430.41;5097375;28;20043;-48
2021/07/27 05:49:37;;;;;;;1.60;1.50;;;26.90;48.70;;;-147.20;100.00;58430.41;5116130;28;20056;-52
2021/07/27 05:52:03;;;;;;;1.58;1.48;;;26.90;48.70;;;-147.20;100.00;58430.41;5115701;28;20051;-48
2021/07/27 05:54:29;;;;;;;1.50;1.40;;;26.90;48.60;;;-147.20;100.00;58430.41;5115773;28;20052;-52
2021/07/27 05:56:55;;;;;;;1.70;1.60;;;27.00;48.60;;;-147.20;100.00;58430.41;5115709;28;20051;-52
2021/07/27 05:59:21;;;;;;;1.73;1.63;;;27.10;48.40;;;-147.20;100.00;58430.41;5115879;28;20471;-51
2021/07/27 06:01:50;;;;;;;1.65;1.55;;;27.20;48.30;;;-147.20;100.00;58430.41;5115569;28;20035;-49
2021/07/27 06:04:16;;;;;;;1.67;1.58;;;27.20;48.20;;;-147.20;100.00;58430.41;5115475;28;20541;-50
2021/07/27 06:06:42;;;;;;;1.77;1.67;;;27.20;48.10;;;-147.20;100.00;58430.41;5115489;28;20071;-52
2021/07/27 06:09:11;;;;;;;1.50;1.40;;;27.20;48.20;;;-147.20;100.00;58430.41;5097179;28;20130;-47
2021/07/27 06:11:38;;;;;;;1.52;1.42;;;27.30;48.10;;;-147.20;100.00;58430.41;5115538;28;20043;-46
2021/07/27 06:14:05;;;;;;;1.70;1.60;;;27.30;48.10;;;-147.20;100.00;58430.41;5115268;28;20403;-47
2021/07/27 06:16:34;;;;;;;1.95;1.80;;;27.30;47.90;;;-147.20;100.00;58430.41;5115341;28;20169;-48
2021/07/27 06:19:00;;;;;;;1.60;1.50;;;27.30;47.90;;;-147.20;100.00;58430.41;5109773;28;20048;-51
2021/07/27 06:21:27;;;;;;;1.75;1.65;;;27.30;47.90;;;-147.20;100.00;58430.41;5115023;28;20063;-52
2021/07/27 06:23:53;;;;;;;1.50;1.40;;;27.30;47.90;;;-147.20;100.00;58430.41;5115110;28;20059;-48
2021/07/27 06:26:19;;;;;;;2.03;1.83;;;27.40;47.90;;;-147.20;100.00;58430.41;5113694;28;20087;-48
2021/07/27 06:28:45;;;;;;;1.85;1.75;;;27.50;47.80;;;-147.20;100.00;58430.41;5114816;28;20130;-50
2021/07/27 06:31:11;;;;;;;1.75;1.60;;;27.60;47.70;;;-147.20;100.00;58430.41;5114805;28;20051;-50
2021/07/27 06:33:44;;;;;;;1.73;1.63;;;27.70;47.60;;;-147.20;100.00;58430.41;5095122;28;20109;-48
2021/07/27 06:36:11;;;;;;;1.60;1.50;;;27.70;47.40;;;-147.20;100.00;58430.41;5114943;28;20054;-47
2021/07/27 06:38:38;;;;;;;2.63;1.60;;;27.80;47.30;;;-147.20;100.00;58430.41;5114506;28;20051;-52
2021/07/27 06:41:08;;;;;;;1.63;1.52;;;27.80;47.20;;;-147.20;100.00;58430.41;5115099;28;20039;-53
2021/07/27 06:43:35;;;;;;;1.65;1.55;;;27.90;47.10;;;-147.20;100.00;58430.41;5114747;28;20059;-53
2021/07/27 06:46:01;;;;;;;1.45;1.35;;;27.90;47.00;;;-147.20;100.00;58430.41;5114737;28;20059;-53
2021/07/27 06:48:27;;;;;;;1.52;1.42;;;28.00;46.90;;;-147.20;100.00;58430.41;5114851;28;20065;-50
2021/07/27 06:50:53;;;;;;;1.58;1.48;;;28.00;46.80;;;-147.20;100.00;58430.41;5080108;28;20052;-48
2021/07/27 06:53:19;;;;;;;1.27;1.17;;;28.10;46.80;;;-147.20;100.00;58430.41;5079367;28;20052;-53
2021/07/27 06:55:46;;;;;;;1.50;1.40;;;28.10;46.60;;;-147.20;100.00;58430.41;5113339;28;20114;-50
2021/07/27 06:58:12;;;;;;;1.73;1.55;;;28.10;46.50;;;-147.20;100.00;58430.41;5114647;28;20039;-46
2021/07/27 07:00:41;;;;;;;1.58;1.48;;;28.20;46.50;;;-147.20;100.00;58430.41;5114508;28;20083;-48
2021/07/27 07:03:08;;;;;;;1.48;1.38;;;28.30;46.50;;;-147.20;100.00;58430.41;5114452;28;20096;-51
2021/07/27 07:05:34;;;;;;;1.58;1.48;;;28.30;46.40;;;-147.20;100.00;58430.41;5114352;28;20127;-51
2021/07/27 07:08:01;;;;;;;1.63;1.52;;;28.40;46.40;;;-147.20;100.00;58430.41;5095938;28;20056;-53
2021/07/27 07:10:27;;;;;;;1.70;1.60;;;28.40;46.20;;;-147.20;100.00;58430.41;5114709;28;20131;-47
2021/07/27 07:12:53;;;;;;;1.40;1.30;;;28.40;46.10;;;-147.20;100.00;58430.41;5096078;28;20047;-53
2021/07/27 07:15:19;;;;;;;2.75;1.60;;;28.50;46.10;;;-147.20;100.00;58430.41;5114738;28;20591;-48
2021/07/27 07:17:45;;;;;;;1.70;1.60;;;28.50;46.00;;;-147.20;100.00;58430.41;5114252;28;20044;-48
2021/07/27 07:20:11;;;;;;;1.80;1.45;;;28.50;46.00;;;-147.20;100.00;58430.41;5114214;28;20055;-47
2021/07/27 07:22:37;;;;;;;1.30;1.20;;;28.60;45.90;;;-147.20;100.00;58430.41;5113181;28;20047;-48
2021/07/27 07:25:04;;;;;;;1.58;1.48;;;28.60;45.80;;;-147.20;100.00;58430.41;5112073;28;20385;-51
2021/07/27 07:27:30;;;;;;;1.60;1.50;;;28.70;45.80;;;-147.20;100.00;58430.41;5114477;28;20053;-49
2021/07/27 07:29:59;;;;;;;1.60;1.45;;;28.70;45.70;;;-147.20;100.00;58430.41;5095908;28;20130;-48
2021/07/27 07:32:25;;;;;;;1.40;1.30;;;28.70;45.60;;;-147.20;100.00;58430.41;5114375;28;20044;-49
2021/07/27 07:34:51;;;;;;;2.65;1.50;;;28.70;45.50;;;-147.20;100.00;58430.41;5114184;28;20058;-50
2021/07/27 07:37:16;;;;;;;1.85;1.45;;;28.80;45.50;;;-147.20;100.00;58430.41;5114019;28;20474;-50
2021/07/27 07:39:42;;;;;;;1.55;1.45;;;28.90;45.40;;;-147.20;100.00;58430.41;5114666;28;20039;-54
2021/07/27 07:42:08;;;;;;;1.35;1.25;;;28.90;45.40;;;-147.20;100.00;58430.41;5113866;28;20035;-52
2021/07/27 07:44:35;;;;;;;1.70;1.60;;;28.90;45.30;;;-147.20;100.00;58430.41;5114514;28;20055;-51
2021/07/27 07:47:02;;;;;;;1.58;1.48;;;29.00;45.30;;;-147.20;100.00;58430.41;5114254;28;20052;-51
2021/07/27 07:49:28;;;;;;;1.60;1.50;;;28.90;45.20;;;-147.20;100.00;58430.41;5113910;28;20047;-49
2021/07/27 07:51:56;;;;;;;1.60;1.50;;;29.00;45.10;;;-147.20;100.00;58430.41;5113729;28;20054;-49
2021/07/27 07:54:26;;;;;;;1.40;1.30;;;29.00;45.00;;;-147.20;100.00;58430.41;5113795;28;20043;-48
2021/07/27 07:56:52;;;;;;;1.50;1.40;;;29.10;45.00;;;-147.20;100.00;58430.41;5113870;28;20093;-46
2021/07/27 07:59:19;;;;;;;1.80;1.55;;;29.20;44.90;;;-147.20;100.00;58430.41;5114187;28;20043;-54
2021/07/27 08:01:45;;;;;;;1.65;1.55;;;29.20;44.80;;;-147.20;100.00;58430.41;5095391;28;20043;-50
2021/07/27 08:04:12;;;;;;;1.60;1.50;;;29.20;44.70;;;-147.20;100.00;58430.41;5113500;28;20043;-47
2021/07/27 08:06:38;;;;;;;2.40;1.60;;;29.30;44.70;;;-147.20;100.00;58430.41;5113432;28;20101;-52
2021/07/27 08:09:04;;;;;;;1.70;1.60;;;29.30;44.60;;;-147.20;100.00;58430.41;5113171;28;20121;-48
2021/07/27 08:11:31;;;;;;;3.40;1.50;;;29.30;44.60;;;-147.20;100.00;58430.41;5095867;28;20543;-52
2021/07/27 08:13:58;;;;;;;2.40;1.77;;;29.30;44.60;;;-147.20;100.00;58430.41;5113467;28;20501;-53
2021/07/27 08:16:26;;;;;;;1.55;1.45;;;29.30;44.60;;;-147.20;100.00;58430.41;5113336;28;20048;-49
2021/07/27 08:18:53;;;;;;;1.67;1.58;;;29.30;44.60;;;-147.20;100.00;58430.41;5093661;28;20043;-52
2021/07/27 08:21:24;;;;;;;1.63;1.52;;;29.30;44.60;;;-147.20;100.00;58430.41;5094961;28;20436;-52
2021/07/27 08:23:50;;;;;;;1.60;1.50;;;29.30;44.60;;;-147.20;100.00;58430.41;5113312;28;20449;-53
2021/07/27 08:26:16;;;;;;;3.15;1.60;;;29.40;44.60;;;-147.20;100.00;58430.41;5094021;28;20128;-53
2021/07/27 08:28:48;;;;;;;1.50;1.40;;;29.40;44.50;;;-147.20;100.00;58430.41;5113104;28;20052;-53
2021/07/27 08:31:16;;;;;;;1.70;1.48;;;29.40;44.50;;;-147.20;100.00;58430.41;5113165;28;20504;-51
2021/07/27 08:33:42;;;;;;;1.45;1.35;;;29.40;44.40;;;-147.20;100.00;58430.41;5113066;28;20094;-51
2021/07/27 08:36:08;;;;;;;1.90;1.40;;;29.40;44.50;;;-147.20;100.00;58430.41;5113151;28;20079;-48
2021/07/27 08:38:35;;;;;;;1.85;1.30;;;29.30;44.40;;;-147.20;100.00;58430.41;5112915;28;20527;-50
2021/07/27 08:41:03;;;;;;;2.13;1.27;;;29.30;44.50;;;-147.20;100.00;58430.41;5094752;28;20063;-52
2021/07/27 08:43:28;;;;;;;1.58;1.48;;;29.30;44.60;;;-147.20;100.00;58430.41;5112891;28;20070;-53
2021/07/27 08:45:55;;;;;;;1.48;1.38;;;29.30;44.60;;;-147.20;100.00;58430.41;5113320;28;20479;-55
2021/07/27 08:48:22;;;;;;;1.50;1.40;;;29.30;44.50;;;-147.20;100.00;58430.41;5112930;28;20048;-54
2021/07/27 08:50:48;;;;;;;1.50;1.40;;;29.30;44.50;;;-147.20;100.00;58430.41;5113035;28;20052;-54
2021/07/27 08:53:14;;;;;;;1.58;1.48;;;29.30;44.50;;;-147.20;100.00;58430.41;5113391;28;20040;-54
2021/07/27 08:55:40;;;;;;;2.15;1.48;;;29.30;44.50;;;-147.20;100.00;58430.41;5113510;28;20047;-46
2021/07/27 08:58:05;;;;;;;1.77;1.67;;;29.40;44.50;;;-147.20;100.00;58430.41;5113169;28;20048;-48
2021/07/27 09:00:33;;;;;;;1.73;1.45;;;29.40;44.40;;;-147.20;100.00;58430.41;5113092;28;20051;-51
2021/07/27 09:03:20;;;;;;;1.65;1.55;;;29.40;44.40;;;-147.20;100.00;58430.41;5093486;28;20434;-47
2021/07/27 09:05:47;;;;;;;1.75;1.65;;;29.40;44.50;;;-147.20;100.00;58430.41;5112553;28;20101;-50
2021/07/27 09:08:15;;;;;;;1.60;1.50;;;29.30;45.00;;;-147.20;100.00;58430.41;5112684;28;20051;-49
2021/07/27 09:10:42;;;;;;;1.48;1.25;;;29.30;44.50;;;-147.20;100.00;58430.41;5112641;28;20074;-52
2021/07/27 09:13:11;;;;;;;1.40;1.30;;;29.30;44.50;;;-147.20;100.00;58430.41;5112601;28;20048;-51
2021/07/27 09:15:42;;;;;;;1.42;1.30;;;29.30;44.50;;;-147.20;100.00;58430.41;5112577;28;20084;-52
2021/07/27 09:18:16;;;;;;;1.50;1.40;;;29.30;44.40;;;-147.20;100.00;58430.41;5112529;28;20043;-50
2021/07/27 09:20:53;;;;;;;1.45;1.35;;;29.40;44.40;;;-147.20;100.00;58430.41;5115420;28;20048;-49
2021/07/27 09:23:26;;;;;;;1.73;1.48;;;29.40;44.40;;;-147.20;100.00;58430.41;5116183;28;20051;-48
2021/07/27 09:25:58;;;;;;;1.85;1.20;;;29.40;44.40;;;-147.20;100.00;58430.41;5116166;28;20043;-52
2021/07/27 09:28:25;;;;;;;1.67;1.58;;;29.40;44.40;;;-147.20;100.00;58430.41;5116290;28;20058;-47
2021/07/27 09:30:59;;;;;;;1.40;1.30;;;29.30;44.30;;;-147.20;100.00;58430.41;5098009;28;20066;-49
2021/07/27 09:33:34;;;;;;;1.40;1.30;;;29.40;44.40;;;-147.20;100.00;58430.41;5116272;28;20368;-53
2021/07/27 09:36:01;;;;;;;1.90;1.73;;;29.30;44.40;;;-147.20;100.00;58430.41;5116204;28;20459;-51
2021/07/27 09:38:34;;;;;;;1.52;1.42;;;29.30;44.40;;;-147.20;100.00;58430.41;5115978;28;20047;-48
2021/07/27 09:41:06;;;;;;;1.45;1.35;;;29.40;44.50;;;-147.20;100.00;58430.41;5115982;28;20086;-48
2021/07/27 09:43:33;;;;;;;1.65;1.55;;;29.40;45.00;;;-147.20;100.00;58430.41;5116007;28;20048;-53
2021/07/27 09:46:00;;;;;;;2.13;1.45;;;29.40;44.40;;;-147.20;100.00;58430.41;5114365;28;20078;-49
2021/07/27 09:48:28;;;;;;;1.42;1.33;;;29.40;44.30;;;-147.20;100.00;58430.41;5115665;28;20093;-51
2021/07/27 09:50:58;;;;;;;1.52;1.42;;;29.40;44.30;;;-147.20;100.00;58430.41;5115754;28;20048;-51
2021/07/27 09:53:24;;;;;;;1.42;1.33;;;29.40;44.20;;;-147.20;100.00;58430.41;5115761;28;20402;-53
2021/07/27 09:55:51;;;;;;;1.50;1.40;;;29.40;44.20;;;-147.20;100.00;58430.41;5115594;28;20087;-52
2021/07/27 09:58:18;;;;;;;1.80;1.60;;;29.40;44.30;;;-147.20;100.00;58430.41;5095557;28;20055;-49
2021/07/27 10:00:54;;;;;;;1.73;1.50;;;29.40;44.30;;;-147.20;100.00;58430.41;5115718;28;20048;-50
2021/07/27 10:03:26;;;;;;;1.70;1.52;;;29.40;44.30;;;-147.20;100.00;58430.41;5097820;28;20375;-52
2021/07/27 10:06:00;;;;;;;1.20;1.10;;;29.40;44.30;;;-147.20;100.00;58430.41;5115799;28;20146;-48
2021/07/27 10:08:34;;;;;;;1.67;1.58;;;29.40;44.30;;;-147.20;100.00;58430.41;5115284;28;20078;-53
2021/07/27 10:11:13;;;;;;;2.13;1.50;;;29.40;44.40;;;-147.20;100.00;58430.41;5097091;28;20040;-53
2021/07/27 10:13:45;;;;;;;1.50;1.40;;;29.40;44.40;;;-147.20;100.00;58430.41;5115226;28;20499;-53
2021/07/27 10:16:25;;;;;;;1.63;1.52;;;29.40;44.30;;;-147.20;100.00;58430.41;5115302;28;20051;-46
2021/07/27 10:18:54;;;;;;;1.40;1.30;;;29.50;44.30;;;-147.20;100.00;58430.41;5097092;28;20124;-51
2021/07/27 10:21:26;;;;;;;2.95;1.70;;;29.50;44.20;;;-147.20;100.00;58430.41;5115348;28;20101;-48
2021/07/27 10:24:19;;;;;;;1.90;1.42;;;29.50;44.20;;;-147.20;100.00;58430.41;5080517;28;20048;-51
2021/07/27 10:26:45;;;;;;;1.60;1.50;;;29.50;44.10;;;-147.20;100.00;58430.41;5115315;28;20093;-50